Time;durP1;ratioP1;P1;durP2;ratioP2;P2;SDS_P1;SDS_P2;PMS_P1;PMS_P2;Temp;Humidity;BMP_temperature;BMP_pressure;BME280_temperature;BME280_humidity;BME280_pressure;Samples;Min_cycle;Max_cycle;Signal;HPM_P1;HPM_P2
2023/04/05 00:01:07;;;;;;;2.50;0.93;;;;;;;4.79;40.71;100930.53;5029170;28;20038;-77
2023/04/05 00:03:33;;;;;;;3.50;0.80;;;;;;;4.81;40.83;100929.50;5028070;28;20115;-77
2023/04/05 00:05:59;;;;;;;2.17;0.60;;;;;;;4.81;40.81;100926.94;5024740;28;20518;-77
2023/04/05 00:08:25;;;;;;;3.90;0.70;;;;;;;4.84;40.43;100925.91;5026716;28;20033;-77
2023/04/05 00:10:51;;;;;;;4.38;0.60;;;;;;;4.88;40.72;100920.47;5030742;28;20029;-77
2023/04/05 00:13:17;;;;;;;3.90;0.90;;;;;;;4.90;40.26;100918.59;5030760;28;20056;-77
2023/04/05 00:15:42;;;;;;;5.85;0.90;;;;;;;4.87;40.46;100917.97;5031985;28;20028;-77
2023/04/05 00:18:18;;;;;;;4.50;0.82;;;;;;;4.90;39.97;100916.03;5017401;28;20033;-77
2023/04/05 00:20:43;;;;;;;1.75;0.80;;;;;;;4.93;40.29;100915.84;5016072;28;20049;-77
2023/04/05 00:23:09;;;;;;;4.35;0.85;;;;;;;4.84;40.24;100918.16;5016381;28;20033;-77
2023/04/05 00:25:35;;;;;;;1.70;0.90;;;;;;;4.95;39.70;100926.06;5016644;28;20064;-77
2023/04/05 00:28:00;;;;;;;1.90;0.82;;;;;;;4.92;40.71;100924.50;5019027;28;20025;-76
2023/04/05 00:30:27;;;;;;;2.67;0.82;;;;;;;4.74;41.16;100915.31;5017838;28;20030;-77
2023/04/05 00:32:53;;;;;;;1.98;1.05;;;;;;;4.66;41.54;100920.16;5017243;28;20068;-76
2023/04/05 00:35:19;;;;;;;3.53;1.33;;;;;;;4.70;40.81;100919.06;5022238;28;20531;-77
2023/04/05 00:37:44;;;;;;;1.80;0.60;;;;;;;4.74;40.68;100915.31;5012951;28;20030;-76
2023/04/05 00:40:10;;;;;;;1.92;0.75;;;;;;;4.80;40.58;100922.69;5023148;28;20083;-77
2023/04/05 00:42:35;;;;;;;2.65;0.63;;;;;;;4.72;40.98;100922.38;5014304;28;20037;-77
2023/04/05 00:45:01;;;;;;;2.10;0.80;;;;;;;4.64;41.87;100919.44;5012670;28;20030;-77
2023/04/05 00:47:27;;;;;;;4.70;1.13;;;;;;;4.55;42.47;100917.41;5014835;28;20034;-77
2023/04/05 00:49:52;;;;;;;3.35;1.20;;;;;;;4.55;41.69;100910.50;5009808;28;20056;-77
2023/04/05 00:52:18;;;;;;;3.45;0.95;;;;;;;4.56;42.17;100916.50;5018558;28;20354;-77
2023/04/05 00:54:44;;;;;;;2.30;0.60;;;;;;;4.53;42.11;100916.69;5019163;28;20030;-77
2023/04/05 00:57:10;;;;;;;2.47;1.10;;;;;;;4.51;42.30;100915.94;5011124;28;20045;-77
2023/04/05 00:59:35;;;;;;;4.05;0.68;;;;;;;4.46;42.38;100921.38;5020263;28;20124;-76
2023/04/05 01:02:15;;;;;;;4.50;0.80;;;;;;;4.42;41.65;100917.34;5024385;28;20421;-77
2023/04/05 01:04:48;;;;;;;2.22;0.98;;;;;;;4.47;42.16;100911.91;5018770;28;20061;-76
2023/04/05 01:07:32;;;;;;;2.72;1.35;;;;;;;4.49;41.38;100915.22;5011652;28;20033;-76
2023/04/05 01:09:59;;;;;;;1.90;0.80;;;;;;;4.52;41.64;100905.53;5020371;28;20030;-76
2023/04/05 01:12:30;;;;;;;2.55;0.90;;;;;;;4.53;42.18;100916.69;5024095;28;20073;-77
2023/04/05 01:14:56;;;;;;;3.35;0.75;;;;;;;4.47;41.41;100915.31;5022920;28;20056;-76
2023/04/05 01:17:26;;;;;;;2.38;1.10;;;;;;;4.53;41.42;100908.94;5023511;28;20025;-77
2023/04/05 01:19:57;;;;;;;4.45;0.93;;;;;;;4.58;40.74;100909.50;5027366;28;20127;-76
2023/04/05 01:22:50;;;;;;;2.30;0.80;;;;;;;4.56;41.00;100916.50;5024439;28;20698;-77
2023/04/05 01:25:35;;;;;;;2.38;0.90;;;;;;;4.56;41.71;100926.81;5033062;28;20037;-77
2023/04/05 01:28:16;;;;;;;1.90;0.45;;;;;;;4.36;42.81;100916.88;5027774;28;20643;-76
2023/04/05 01:30:46;;;;;;;2.30;0.80;;;;;;;4.26;42.07;100911.44;5031072;28;20052;-77
2023/04/05 01:33:15;;;;;;;2.08;0.90;;;;;;;4.45;41.39;100906.00;5029888;28;20049;-77
2023/04/05 01:35:50;;;;;;;2.95;1.13;;;;;;;4.43;42.22;100913.84;5036577;28;20022;-77
2023/04/05 01:38:26;;;;;;;2.35;0.77;;;;;;;4.35;41.69;100903.16;5030753;28;20094;-77
2023/04/05 01:40:52;;;;;;;4.50;1.10;;;;;;;4.37;41.71;100905.63;5028030;28;20029;-77
2023/04/05 01:43:18;;;;;;;1.85;0.80;;;;;;;4.45;40.79;100911.16;5025101;28;20025;-77
2023/04/05 01:45:45;;;;;;;2.58;0.80;;;;;;;4.41;41.73;100914.84;5033984;28;20091;-76
2023/04/05 01:48:11;;;;;;;1.95;0.60;;;;;;;4.44;41.30;100905.16;5026187;28;20407;-77
2023/04/05 01:50:36;;;;;;;1.92;0.80;;;;;;;4.27;42.64;100913.94;5030034;28;20036;-77
2023/04/05 01:53:02;;;;;;;1.85;0.57;;;;;;;4.08;43.64;100918.56;5032222;28;20026;-77
2023/04/05 01:55:28;;;;;;;1.73;0.57;;;;;;;4.09;43.19;100903.91;5032844;28;20026;-76
2023/04/05 01:57:55;;;;;;;2.42;0.68;;;;;;;4.22;42.70;100905.69;5040677;28;20701;-76
2023/04/05 02:00:21;;;;;;;4.38;0.88;;;;;;;4.47;40.93;100909.31;5027778;28;20099;-77
2023/04/05 02:02:46;;;;;;;2.25;0.60;;;;;;;4.51;41.27;100913.38;5029294;28;20151;-77
2023/04/05 02:05:12;;;;;;;2.78;0.73;;;;;;;4.38;42.11;100909.88;5026525;28;20151;-77
2023/04/05 02:07:37;;;;;;;2.45;0.75;;;;;;;4.16;43.17;100916.34;5030524;28;20046;-77
2023/04/05 02:10:03;;;;;;;2.83;0.80;;;;;;;4.00;44.98;100910.47;5024528;28;20051;-77
2023/04/05 02:12:29;;;;;;;2.97;0.93;;;;;;;3.77;46.60;100917.00;5020423;28;20026;-76
2023/04/05 02:14:54;;;;;;;2.17;0.50;;;;;;;3.59;47.52;100911.16;5020403;28;20044;-77
2023/04/05 02:17:20;;;;;;;2.65;0.88;;;;;;;3.48;47.76;100910.09;5028673;28;20068;-76
2023/04/05 02:19:46;;;;;;;2.85;0.95;;;;;;;3.54;46.92;100918.31;5029811;28;20029;-77
2023/04/05 02:22:12;;;;;;;1.83;0.85;;;;;;;3.53;46.77;100919.22;5027801;28;20113;-76
2023/04/05 02:24:38;;;;;;;2.28;0.80;;;;;;;3.46;46.65;100919.66;5025198;28;20030;-77
2023/04/05 02:27:03;;;;;;;3.08;0.90;;;;;;;3.37;47.97;100923.59;5034291;28;20044;-77
2023/04/05 02:29:30;;;;;;;2.90;0.50;;;;;;;3.26;49.10;100918.25;5033554;28;20095;-77
2023/04/05 02:31:56;;;;;;;6.22;0.95;;;;;;;3.15;49.27;100915.44;5031286;28;20040;-77
2023/04/05 02:34:21;;;;;;;1.98;0.80;;;;;;;3.08;48.83;100919.28;5026555;28;20124;-76
2023/04/05 02:36:51;;;;;;;2.30;0.93;;;;;;;2.93;49.09;100914.06;5024705;28;20025;-76
2023/04/05 02:39:17;;;;;;;2.38;0.82;;;;;;;2.86;49.08;100919.63;5022076;28;20041;-76
2023/04/05 02:41:42;;;;;;;2.10;0.65;;;;;;;2.79;51.05;100914.00;5021761;28;20030;-76
2023/04/05 02:44:08;;;;;;;2.58;1.00;;;;;;;2.65;51.41;100912.19;5013698;28;20026;-76
2023/04/05 02:46:33;;;;;;;4.72;0.90;;;;;;;2.66;50.86;100915.59;5022808;28;20031;-75
2023/04/05 02:48:59;;;;;;;3.28;0.95;;;;;;;2.65;51.25;100916.50;5035601;28;20091;-76
2023/04/05 02:51:25;;;;;;;3.70;1.23;;;;;;;2.54;51.44;100903.38;5029818;28;20037;-76
2023/04/05 02:53:51;;;;;;;2.47;0.60;;;;;;;2.48;51.83;100909.69;5019449;28;20037;-76
2023/04/05 02:56:17;;;;;;;2.88;1.10;;;;;;;2.45;52.07;100914.16;5012917;28;20034;-76
2023/04/05 02:58:43;;;;;;;1.80;0.85;;;;;;;2.45;52.36;100909.00;5023087;28;20156;-76
2023/04/05 03:01:09;;;;;;;5.35;1.20;;;;;;;2.43;52.85;100908.25;5019834;28;20100;-76
2023/04/05 03:03:34;;;;;;;2.63;1.00;;;;;;;2.54;51.74;100911.91;5013472;28;20057;-76
2023/04/05 03:06:09;;;;;;;4.43;1.50;;;;;;;2.71;50.09;100905.88;5011250;28;20766;-76
2023/04/05 03:08:42;;;;;;;2.25;0.80;;;;;;;2.96;48.79;100916.47;5016431;28;20025;-76
2023/04/05 03:11:09;;;;;;;3.08;1.27;;;;;;;3.03;48.85;100905.81;5024406;28;20037;-76
2023/04/05 03:13:35;;;;;;;2.88;1.00;;;;;;;3.06;49.21;100906.50;5018833;28;20037;-76
2023/04/05 03:16:01;;;;;;;2.53;1.20;;;;;;;2.97;49.01;100907.81;5029105;28;20792;-76
2023/04/05 03:18:28;;;;;;;3.08;1.10;;;;;;;2.96;47.46;100913.88;5010461;28;20362;-76
2023/04/05 03:20:55;;;;;;;3.47;1.10;;;;;;;3.03;48.21;100913.56;5011434;28;20022;-76
2023/04/05 03:23:25;;;;;;;3.10;1.10;;;;;;;2.97;48.82;100905.25;5011981;28;20030;-76
2023/04/05 03:25:55;;;;;;;4.22;1.50;;;;;;;2.81;49.63;100909.59;5025757;28;20132;-76
2023/04/05 03:28:20;;;;;;;3.83;1.20;;;;;;;2.66;50.71;100913.84;5022804;28;20045;-76
2023/04/05 03:30:45;;;;;;;4.28;1.25;;;;;;;2.49;51.58;100919.06;5010847;28;20034;-76
2023/04/05 03:33:11;;;;;;;3.67;0.93;;;;;;;2.29;51.84;100914.16;5013403;28;20040;-76
2023/04/05 03:35:36;;;;;;;4.95;1.40;;;;;;;2.19;53.22;100923.25;5019631;28;20034;-77
2023/04/05 03:38:02;;;;;;;5.05;1.27;;;;;;;2.07;53.11;100924.72;5016497;28;20057;-76
2023/04/05 03:40:27;;;;;;;5.10;1.40;;;;;;;1.97;52.88;100926.09;5012179;28;20475;-76
2023/04/05 03:42:52;;;;;;;3.17;1.05;;;;;;;1.89;54.08;100923.91;5024449;28;20045;-76
2023/04/05 03:45:18;;;;;;;3.97;1.85;;;;;;;1.82;54.26;100934.59;5026085;28;20033;-76
2023/04/05 03:47:44;;;;;;;5.25;1.95;;;;;;;1.89;54.37;100931.63;5023615;28;20072;-76
2023/04/05 03:50:10;;;;;;;5.07;1.55;;;;;;;1.87;54.89;100930.06;5017284;28;20029;-76
2023/04/05 03:52:35;;;;;;;4.03;1.63;;;;;;;1.80;54.84;100926.97;5018840;28;20553;-76
2023/04/05 03:55:01;;;;;;;5.05;1.70;;;;;;;1.77;54.96;100936.56;5025305;28;20042;-76
2023/04/05 03:57:29;;;;;;;2.72;1.23;;;;;;;1.72;55.43;100933.41;5025739;28;20029;-76
2023/04/05 03:59:55;;;;;;;5.43;2.72;;;;;;;1.72;54.89;100938.53;5028370;28;20452;-76
2023/04/05 04:02:21;;;;;;;5.05;2.80;;;;;;;1.68;55.18;100932.72;5034963;28;20033;-76
2023/04/05 04:04:46;;;;;;;7.25;3.33;;;;;;;1.66;54.64;100937.09;5032643;28;20049;-76
2023/04/05 04:07:12;;;;;;;4.45;2.10;;;;;;;1.63;54.86;100938.09;5021074;28;20138;-76
2023/04/05 04:09:37;;;;;;;6.07;2.50;;;;;;;1.62;54.95;100936.41;5029341;28;20126;-76
2023/04/05 04:12:03;;;;;;;10.45;6.15;;;;;;;1.59;54.91;100936.56;5019655;28;20033;-77
2023/04/05 04:14:28;;;;;;;7.53;4.28;;;;;;;1.64;54.67;100942.31;5030013;28;20033;-75
2023/04/05 04:16:54;;;;;;;5.65;1.60;;;;;;;1.70;55.22;100946.31;5027750;28;20025;-76
2023/04/05 04:19:19;;;;;;;9.02;2.35;;;;;;;1.68;55.51;100948.13;5026067;28;20041;-77
2023/04/05 04:21:49;;;;;;;4.28;2.42;;;;;;;1.62;55.39;100945.88;5027471;28;20036;-77
2023/04/05 04:24:17;;;;;;;7.13;2.85;;;;;;;1.57;54.61;100938.38;5026961;28;20034;-77
2023/04/05 04:26:44;;;;;;;4.22;1.73;;;;;;;1.56;54.88;100944.41;5024812;28;20038;-67
2023/04/05 04:29:11;;;;;;;6.60;2.30;;;;;;;1.54;54.76;100945.41;5030010;28;20036;-75
2023/04/05 04:31:38;;;;;;;4.57;1.92;;;;;;;1.46;54.83;100952.66;5030210;28;20037;-74
2023/04/05 04:34:04;;;;;;;3.97;1.42;;;;;;;1.39;55.63;100954.72;5031111;28;20512;-75
2023/04/05 04:36:38;;;;;;;4.05;1.52;;;;;;;1.32;56.21;100950.78;5029777;28;20051;-74
2023/04/05 04:39:07;;;;;;;3.20;1.35;;;;;;;1.23;55.99;100953.78;5027984;28;20387;-74
2023/04/05 04:41:37;;;;;;;4.43;2.00;;;;;;;1.19;56.25;100950.53;5025639;28;20025;-74
2023/04/05 04:44:03;;;;;;;7.68;2.63;;;;;;;1.07;56.76;100947.69;5025015;28;20037;-74
2023/04/05 04:46:33;;;;;;;8.82;2.70;;;;;;;1.16;56.25;100953.22;5028122;28;20112;-74
2023/04/05 04:49:04;;;;;;;11.75;2.92;;;;;;;1.20;56.56;100946.22;5025346;28;20103;-73
2023/04/05 04:51:31;;;;;;;17.75;3.33;;;;;;;1.15;56.50;100955.88;5028224;28;20041;-75
2023/04/05 04:53:57;;;;;;;9.48;3.10;;;;;;;1.08;57.72;100957.06;5032981;28;20104;-74
2023/04/05 04:56:22;;;;;;;20.67;3.70;;;;;;;1.03;59.24;100952.13;5031019;28;20138;-75
2023/04/05 04:58:48;;;;;;;14.23;4.75;;;;;;;0.98;58.97;100957.47;5028827;28;20108;-74
2023/04/05 05:01:13;;;;;;;28.00;4.03;;;;;;;0.95;59.18;100965.31;5022801;28;20048;-75
2023/04/05 05:03:38;;;;;;;15.80;3.13;;;;;;;0.91;58.99;100966.41;5026118;28;20112;-74
2023/04/05 05:06:04;;;;;;;15.57;4.18;;;;;;;0.89;60.25;100960.50;5027713;28;20075;-74
2023/04/05 05:08:30;;;;;;;14.48;4.95;;;;;;;0.93;60.75;100962.03;5026390;28;20475;-74
2023/04/05 05:10:55;;;;;;;11.50;3.97;;;;;;;0.98;60.22;100962.63;5031146;28;20028;-75
2023/04/05 05:13:21;;;;;;;15.75;4.25;;;;;;;1.03;61.08;100964.13;5027972;28;20025;-75
2023/04/05 05:15:47;;;;;;;12.77;3.63;;;;;;;1.05;61.15;100967.47;5028719;28;20096;-74
2023/04/05 05:18:13;;;;;;;13.27;3.42;;;;;;;1.08;61.25;100970.72;5023334;28;20124;-75
2023/04/05 05:20:39;;;;;;;10.35;3.35;;;;;;;1.08;61.56;100969.88;5030601;28;20490;-74
2023/04/05 05:23:05;;;;;;;6.85;3.40;;;;;;;1.10;61.89;100970.66;5031499;28;20095;-75
2023/04/05 05:25:30;;;;;;;9.73;3.72;;;;;;;1.14;62.23;100978.13;5030406;28;20113;-74
2023/04/05 05:27:56;;;;;;;11.02;3.85;;;;;;;1.24;62.19;100979.38;5027433;28;20095;-74
2023/04/05 05:30:21;;;;;;;11.05;3.70;;;;;;;1.37;62.51;100989.91;5023585;28;20359;-75
2023/04/05 05:32:47;;;;;;;8.30;3.55;;;;;;;1.47;62.97;100980.00;5029320;28;20029;-74
2023/04/05 05:35:13;;;;;;;7.63;3.47;;;;;;;1.59;62.16;100989.66;5027831;28;20033;-75
2023/04/05 05:37:38;;;;;;;7.05;3.28;;;;;;;1.71;62.11;100988.25;5029582;28;20045;-75
2023/04/05 05:40:04;;;;;;;10.88;3.97;;;;;;;1.78;61.53;100982.75;5019914;28;20037;-74
2023/04/05 05:42:33;;;;;;;8.77;3.60;;;;;;;1.89;61.09;100985.59;5029121;28;20029;-75
2023/04/05 05:45:03;;;;;;;6.90;3.30;;;;;;;2.05;61.20;100983.09;5032164;28;20029;-74
2023/04/05 05:47:28;;;;;;;8.00;2.83;;;;;;;2.11;60.67;100987.91;5021956;28;20025;-74
2023/04/05 05:49:53;;;;;;;7.68;3.03;;;;;;;2.27;60.25;100991.38;5030015;28;20471;-74
2023/04/05 05:52:19;;;;;;;5.30;2.95;;;;;;;2.44;59.95;100993.06;5031630;28;20037;-74
2023/04/05 05:54:45;;;;;;;9.98;2.55;;;;;;;2.53;60.26;100987.44;5022319;28;20033;-74
2023/04/05 05:57:11;;;;;;;5.28;2.15;;;;;;;2.65;59.09;100996.25;5023284;28;20064;-74
2023/04/05 05:59:37;;;;;;;6.97;2.53;;;;;;;2.76;58.29;100985.41;5022822;28;20371;-74
2023/04/05 06:02:02;;;;;;;4.32;2.20;;;;;;;2.84;56.97;100988.34;5022439;28;20466;-74
2023/04/05 06:04:28;;;;;;;4.53;2.50;;;;;;;2.86;56.53;100981.38;5016623;28;20090;-75
2023/04/05 06:06:56;;;;;;;5.10;2.67;;;;;;;2.98;56.57;100986.72;5021055;28;20037;-75
2023/04/05 06:09:22;;;;;;;6.25;3.15;;;;;;;3.08;56.64;100978.50;5019705;28;20116;-73
2023/04/05 06:11:51;;;;;;;5.35;2.80;;;;;;;3.24;56.54;100976.75;5019935;28;20030;-73
2023/04/05 06:14:16;;;;;;;7.00;3.20;;;;;;;3.33;55.44;100969.31;5019231;28;20562;-73
2023/04/05 06:16:41;;;;;;;7.85;2.30;;;;;;;3.42;54.24;100970.53;5023974;28;20119;-73
2023/04/05 06:19:07;;;;;;;2.85;1.67;;;;;;;3.50;54.00;100968.34;5030270;28;20029;-73
2023/04/05 06:21:32;;;;;;;6.88;2.08;;;;;;;3.71;53.77;100970.63;5024030;28;20025;-73
2023/04/05 06:23:58;;;;;;;3.60;1.55;;;;;;;3.73;51.55;100969.63;5021932;28;20055;-73
2023/04/05 06:26:27;;;;;;;3.92;2.53;;;;;;;3.87;51.08;100971.38;5022823;28;20034;-72
2023/04/05 06:28:53;;;;;;;4.40;2.13;;;;;;;4.07;50.43;100968.47;5027451;28;20117;-73
2023/04/05 06:31:26;;;;;;;2.95;1.88;;;;;;;4.20;47.76;100972.00;5021899;28;20761;-73
2023/04/05 06:33:52;;;;;;;3.25;1.65;;;;;;;4.44;49.27;100969.69;5029793;28;20059;-73
2023/04/05 06:36:17;;;;;;;3.88;1.40;;;;;;;4.58;48.15;100964.50;5027897;28;20479;-73
2023/04/05 06:38:43;;;;;;;4.55;1.77;;;;;;;4.70;47.23;100964.69;5026817;28;20471;-73
2023/04/05 06:41:08;;;;;;;3.17;1.73;;;;;;;4.77;47.54;100969.34;5024843;28;20038;-73
2023/04/05 06:43:34;;;;;;;2.88;1.58;;;;;;;4.95;47.38;100965.63;5027147;28;20028;-73
2023/04/05 06:45:59;;;;;;;5.00;1.52;;;;;;;5.32;47.70;100968.44;5018939;28;20125;-74
2023/04/05 06:48:28;;;;;;;6.43;2.05;;;;;;;5.83;47.38;100965.97;5022826;28;20452;-74
2023/04/05 06:50:57;;;;;;;6.07;1.70;;;;;;;6.28;47.60;100973.25;5023784;28;20152;-74
2023/04/05 06:53:25;;;;;;;7.40;1.85;;;;;;;6.63;47.66;100968.22;5020353;28;20462;-74
2023/04/05 06:55:50;;;;;;;3.70;1.90;;;;;;;6.81;47.25;100965.28;5025104;28;20387;-74
2023/04/05 06:58:16;;;;;;;4.78;1.85;;;;;;;6.68;47.13;100967.91;5025481;28;20029;-74
2023/04/05 07:00:41;;;;;;;2.97;1.63;;;;;;;6.74;47.24;100964.88;5028998;28;20057;-75
2023/04/05 07:03:07;;;;;;;5.95;2.10;;;;;;;7.03;46.92;100959.41;5027421;28;20171;-74
2023/04/05 07:05:32;;;;;;;5.15;2.50;;;;;;;7.33;47.18;100962.38;5025403;28;20045;-75
2023/04/05 07:07:57;;;;;;;4.10;1.77;;;;;;;7.30;46.76;100957.41;5034973;28;20021;-75
2023/04/05 07:10:23;;;;;;;2.78;1.63;;;;;;;7.49;47.08;100960.31;5030400;28;20546;-74
2023/04/05 07:12:48;;;;;;;3.90;1.83;;;;;;;7.65;46.95;100953.03;5029788;28;20034;-74
2023/04/05 07:15:14;;;;;;;3.95;1.77;;;;;;;7.73;47.05;100959.44;5028393;28;20041;-74
2023/04/05 07:17:39;;;;;;;7.00;2.25;;;;;;;8.01;46.67;100958.19;5035435;28;20551;-75
2023/04/05 07:20:06;;;;;;;3.92;1.92;;;;;;;8.18;46.50;100960.31;5027214;28;20034;-75
2023/04/05 07:22:33;;;;;;;4.00;2.03;;;;;;;8.19;45.94;100968.00;5029345;28;20491;-75
2023/04/05 07:24:58;;;;;;;4.13;2.40;;;;;;;8.25;45.23;100962.34;5026705;28;20044;-74
2023/04/05 07:27:24;;;;;;;7.15;2.50;;;;;;;8.16;45.06;100962.22;5028893;28;20029;-73
2023/04/05 07:29:49;;;;;;;4.78;2.10;;;;;;;7.94;44.65;100957.84;5029123;28;20120;-73
2023/04/05 07:32:15;;;;;;;3.70;1.75;;;;;;;7.63;44.34;100957.50;5026318;28;20037;-73
2023/04/05 07:34:41;;;;;;;3.30;1.55;;;;;;;7.70;44.38;100957.06;5028077;28;20036;-73
2023/04/05 07:37:06;;;;;;;7.45;1.95;;;;;;;8.67;44.29;100962.56;5029072;28;20065;-73
2023/04/05 07:39:32;;;;;;;5.03;1.75;;;;;;;9.97;42.75;100956.25;5029282;28;20501;-73
2023/04/05 07:41:57;;;;;;;5.18;2.00;;;;;;;11.16;41.06;100961.59;5030292;28;20033;-74
2023/04/05 07:44:23;;;;;;;5.68;1.88;;;;;;;12.30;38.23;100964.16;5025350;28;20034;-74
2023/04/05 07:46:48;;;;;;;5.65;1.88;;;;;;;12.83;36.77;100953.03;5025558;28;20360;-73
2023/04/05 07:49:14;;;;;;;7.50;2.20;;;;;;;12.34;37.44;100946.41;5027804;28;20033;-74
2023/04/05 07:51:39;;;;;;;2.65;1.60;;;;;;;12.23;38.19;100947.44;5025476;28;20033;-74
2023/04/05 07:54:05;;;;;;;4.20;1.75;;;;;;;11.99;38.89;100944.50;5025323;28;20034;-73
2023/04/05 07:56:31;;;;;;;4.60;2.17;;;;;;;11.56;38.94;100955.41;5029381;28;20045;-74
2023/04/05 07:58:57;;;;;;;6.38;2.05;;;;;;;10.33;40.44;100950.72;5031821;28;20045;-74
2023/04/05 08:01:26;;;;;;;5.95;1.77;;;;;;;10.10;40.92;100958.66;5025358;28;20461;-74
2023/04/05 08:03:52;;;;;;;5.55;2.17;;;;;;;10.13;41.01;100955.78;5029282;28;20056;-74
2023/04/05 08:06:18;;;;;;;3.55;1.80;;;;;;;10.15;41.34;100953.06;5027515;28;20080;-73
2023/04/05 08:08:47;;;;;;;5.32;2.25;;;;;;;10.40;41.61;100957.03;5033372;28;20064;-73
2023/04/05 08:11:12;;;;;;;3.70;1.80;;;;;;;10.37;42.13;100952.91;5028484;28;20406;-73
2023/04/05 08:13:40;;;;;;;5.57;1.65;;;;;;;9.98;42.82;100955.28;5033008;28;20036;-73
2023/04/05 08:16:06;;;;;;;6.13;3.25;;;;;;;9.60;43.65;100948.09;5029465;28;20037;-73
2023/04/05 08:18:32;;;;;;;3.65;2.50;;;;;;;9.42;44.26;100957.41;5030387;28;20030;-73
2023/04/05 08:20:58;;;;;;;3.58;1.90;;;;;;;9.41;44.28;100957.53;5029080;28;20455;-73
2023/04/05 08:23:23;;;;;;;2.58;1.65;;;;;;;9.12;44.33;100957.28;5031174;28;20047;-73
2023/04/05 08:25:49;;;;;;;3.30;1.67;;;;;;;8.90;44.49;100953.81;5029956;28;20364;-73
2023/04/05 08:28:14;;;;;;;5.07;2.40;;;;;;;8.72;44.16;100950.06;5034756;28;20351;-74
2023/04/05 08:30:41;;;;;;;2.78;1.67;;;;;;;8.50;44.51;100950.09;5031068;28;20106;-73
2023/04/05 08:33:06;;;;;;;3.13;1.35;;;;;;;8.24;44.52;100945.09;5028828;28;20398;-73
2023/04/05 08:35:35;;;;;;;5.45;2.13;;;;;;;8.29;45.49;100944.75;5027590;28;20033;-73
2023/04/05 08:38:00;;;;;;;3.40;1.80;;;;;;;8.33;44.95;100941.00;5026054;28;20029;-73
2023/04/05 08:40:36;;;;;;;4.75;1.90;;;;;;;8.41;44.19;100950.81;5026906;28;20040;-73
2023/04/05 08:43:24;;;;;;;6.10;2.47;;;;;;;8.53;44.24;100942.03;5031433;28;20059;-73
2023/04/05 08:45:51;;;;;;;5.18;1.52;;;;;;;9.15;44.08;100947.47;5030847;28;20026;-73
2023/04/05 08:48:17;;;;;;;3.25;1.70;;;;;;;9.93;44.03;100938.41;5021057;28;20033;-73
2023/04/05 08:50:51;;;;;;;5.38;1.88;;;;;;;10.58;42.03;100940.63;5026270;28;20039;-73
2023/04/05 08:53:16;;;;;;;2.78;1.65;;;;;;;11.11;41.04;100942.09;5027002;28;20038;-73
2023/04/05 08:55:42;;;;;;;4.63;2.25;;;;;;;11.94;39.95;100936.25;5028946;28;20128;-73
2023/04/05 08:58:13;;;;;;;2.05;1.50;;;;;;;12.30;39.37;100930.19;5027743;28;20033;-72
2023/04/05 09:00:40;;;;;;;5.10;1.75;;;;;;;12.54;39.47;100934.91;5037467;28;20025;-73
2023/04/05 09:03:11;;;;;;;4.20;1.77;;;;;;;11.96;39.72;100934.31;5029461;28;20034;-73
2023/04/05 09:05:39;;;;;;;2.80;1.48;;;;;;;11.02;41.41;100942.91;5029117;28;20068;-73
2023/04/05 09:08:05;;;;;;;3.75;1.70;;;;;;;10.74;42.65;100934.91;5034341;28;20474;-72
2023/04/05 09:10:31;;;;;;;3.63;1.55;;;;;;;10.37;42.76;100937.28;5030641;28;20107;-74
2023/04/05 09:12:57;;;;;;;3.30;1.42;;;;;;;10.10;43.17;100943.03;5025988;28;20034;-75
2023/04/05 09:15:25;;;;;;;2.88;1.40;;;;;;;9.85;42.66;100938.25;5025531;28;20098;-75
2023/04/05 09:17:53;;;;;;;3.55;1.67;;;;;;;9.63;42.42;100936.59;5031240;28;20496;-75
2023/04/05 09:20:19;;;;;;;3.65;1.63;;;;;;;9.51;42.98;100938.44;5030487;28;20044;-74
2023/04/05 09:22:45;;;;;;;3.70;1.20;;;;;;;9.39;43.33;100933.44;5027782;28;20120;-75
2023/04/05 09:25:31;;;;;;;3.00;1.42;;;;;;;9.27;42.87;100933.47;5027569;28;20051;-75
2023/04/05 09:27:58;;;;;;;2.92;1.83;;;;;;;9.27;43.91;100933.47;5017353;28;20051;-74
2023/04/05 09:30:24;;;;;;;5.53;2.00;;;;;;;9.10;43.27;100925.38;5025519;28;20115;-75
2023/04/05 09:32:54;;;;;;;3.00;1.60;;;;;;;8.93;42.90;100921.56;5028542;28;20025;-75
2023/04/05 09:35:31;;;;;;;3.55;1.67;;;;;;;8.86;41.28;100926.41;5030264;28;20561;-75
2023/04/05 09:38:01;;;;;;;3.88;1.27;;;;;;;8.67;42.75;100920.19;5032766;28;20131;-74
2023/04/05 09:40:46;;;;;;;2.92;1.30;;;;;;;8.65;41.73;100918.53;5028197;28;20033;-75
2023/04/05 09:43:33;;;;;;;6.40;1.87;;;;;;;8.62;41.73;100923.97;5031595;28;20185;-74
2023/04/05 09:45:59;;;;;;;2.10;1.17;;;;;;;8.60;42.13;100930.22;5038124;28;20682;-75
2023/04/05 09:48:45;;;;;;;3.75;1.88;;;;;;;8.61;40.66;100919.72;5030968;28;20121;-74
2023/04/05 09:51:11;;;;;;;3.08;1.58;;;;;;;8.47;42.65;100919.19;5032058;28;20048;-75
2023/04/05 09:53:36;;;;;;;4.60;1.75;;;;;;;8.63;42.75;100914.41;5033369;28;20029;-74
2023/04/05 09:56:09;;;;;;;2.05;1.38;;;;;;;8.79;42.73;100920.06;5031144;28;20040;-75
2023/04/05 09:58:35;;;;;;;3.28;1.42;;;;;;;8.77;43.08;100915.94;5025260;28;20071;-74
2023/04/05 10:01:03;;;;;;;4.80;1.55;;;;;;;8.70;43.07;100914.75;5030090;28;20075;-74
2023/04/05 10:03:29;;;;;;;4.43;1.63;;;;;;;8.70;43.27;100912.97;5024084;28;20030;-74
2023/04/05 10:05:55;;;;;;;4.70;1.90;;;;;;;8.58;43.30;100911.34;5032360;28;20037;-75
2023/04/05 10:08:22;;;;;;;3.63;1.95;;;;;;;8.32;42.25;100902.97;5027387;28;20037;-75
2023/04/05 10:10:49;;;;;;;7.38;1.45;;;;;;;8.15;42.96;100900.84;5026606;28;20070;-75
2023/04/05 10:13:15;;;;;;;2.95;1.90;;;;;;;8.26;44.09;100901.69;5030856;28;20417;-75
2023/04/05 10:15:46;;;;;;;5.50;2.15;;;;;;;8.42;43.75;100895.34;5031672;28;20103;-75
2023/04/05 10:18:20;;;;;;;4.03;1.30;;;;;;;8.60;42.05;100888.69;5031232;28;20519;-75
2023/04/05 10:20:49;;;;;;;4.05;1.63;;;;;;;8.59;42.49;100882.66;5029933;28;20029;-75
2023/04/05 10:23:28;;;;;;;4.93;2.17;;;;;;;8.71;43.06;100886.06;5023627;28;20052;-75
2023/04/05 10:25:54;;;;;;;3.58;1.95;;;;;;;8.74;43.44;100885.81;5031730;28;20030;-74
2023/04/05 10:28:32;;;;;;;7.10;2.35;;;;;;;8.85;43.54;100879.75;5031216;28;20107;-75
2023/04/05 10:31:37;;;;;;;4.75;1.50;;;;;;;8.91;42.56;100877.50;5035117;28;20065;-75
2023/04/05 10:34:11;;;;;;;5.35;1.45;;;;;;;8.97;43.66;100879.59;5008191;28;20572;-75
2023/04/05 10:36:44;;;;;;;3.00;1.55;;;;;;;8.94;43.75;100873.84;5034575;28;20037;-75
2023/04/05 10:39:18;;;;;;;7.18;1.67;;;;;;;8.87;42.02;100881.28;5029605;28;20029;-74
2023/04/05 10:41:47;;;;;;;4.50;1.60;;;;;;;8.85;43.50;100879.75;5026311;28;20410;-74
2023/04/05 10:44:13;;;;;;;3.28;1.38;;;;;;;8.98;43.51;100872.59;5030072;28;20060;-75
2023/04/05 10:46:40;;;;;;;3.80;1.63;;;;;;;9.04;43.08;100873.88;5026957;28;20072;-75
2023/04/05 10:49:32;;;;;;;4.82;1.70;;;;;;;8.87;42.06;100864.88;5029888;28;20029;-74
2023/04/05 10:51:58;;;;;;;4.95;1.95;;;;;;;8.64;43.23;100858.91;5031115;28;20560;-75
2023/04/05 10:54:24;;;;;;;4.82;1.60;;;;;;;8.89;43.11;100863.81;5027194;28;20033;-75
2023/04/05 10:56:50;;;;;;;2.53;1.55;;;;;;;8.88;42.77;100856.97;5033529;28;20208;-74
2023/04/05 10:59:16;;;;;;;4.07;1.92;;;;;;;8.86;43.34;100853.66;5029372;28;20095;-75
2023/04/05 11:01:44;;;;;;;2.85;1.20;;;;;;;8.76;43.24;100850.16;5031081;28;20120;-74
2023/04/05 11:04:14;;;;;;;3.83;1.70;;;;;;;8.82;43.06;100854.84;5029850;28;20053;-75
2023/04/05 11:06:41;;;;;;;6.70;2.17;;;;;;;8.83;42.73;100848.72;5031121;28;20053;-74
2023/04/05 11:09:19;;;;;;;4.10;2.42;;;;;;;8.74;42.05;100849.44;5027536;28;20533;-75
2023/04/05 11:11:46;;;;;;;6.60;2.15;;;;;;;8.74;42.51;100840.81;5030634;28;20033;-75
2023/04/05 11:14:34;;;;;;;5.72;2.05;;;;;;;8.77;42.36;100837.97;5019016;28;20110;-75
2023/04/05 11:16:59;;;;;;;3.60;2.08;;;;;;;8.86;43.08;100840.66;5019872;28;20032;-76
2023/04/05 11:19:46;;;;;;;2.38;1.38;;;;;;;8.94;42.90;100830.47;5027578;28;20025;-76
2023/04/05 11:22:23;;;;;;;3.42;1.55;;;;;;;9.04;43.00;100833.13;5026372;28;20041;-75
2023/04/05 11:24:53;;;;;;;5.30;1.92;;;;;;;8.85;42.92;100825.19;5019885;28;20040;-75
2023/04/05 11:27:35;;;;;;;3.42;1.77;;;;;;;8.96;42.80;100833.78;5026105;28;20072;-74
2023/04/05 11:30:05;;;;;;;3.20;1.85;;;;;;;9.13;43.26;100828.94;5020579;28;20060;-74
2023/04/05 11:32:42;;;;;;;2.97;1.67;;;;;;;9.19;42.92;100831.88;5032540;28;20029;-75
2023/04/05 11:35:23;;;;;;;4.68;1.60;;;;;;;9.21;42.37;100832.56;5017789;28;20044;-75